Time;durP1;ratioP1;P1;durP2;ratioP2;P2;SDS_P1;SDS_P2;PMS_P1;PMS_P2;Temp;Humidity;BMP_temperature;BMP_pressure;BME280_temperature;BME280_humidity;BME280_pressure;Samples;Min_cycle;Max_cycle;Signal;HPM_P1;HPM_P2
2023/08/06 00:00:20;;;;;;;0.20;0.20;;;;;;;;;;6193525;28;20033;-74
2023/08/06 00:03:20;;;;;;;0.25;0.10;;;;;;;;;;6192406;28;20104;-72
2023/08/06 00:06:20;;;;;;;0.10;0.10;;;;;;;;;;6192967;28;20562;-72
2023/08/06 00:09:21;;;;;;;0.10;0.10;;;;;;;;;;6192632;28;20045;-72
2023/08/06 00:12:21;;;;;;;0.20;0.20;;;;;;;;;;6193308;28;20030;-73
2023/08/06 00:15:21;;;;;;;0.20;0.20;;;;;;;;;;6192821;28;20030;-73
2023/08/06 00:18:22;;;;;;;0.20;0.20;;;;;;;;;;6193721;28;20110;-73
2023/08/06 00:21:22;;;;;;;0.43;0.23;;;;;;;;;;6192611;28;20419;-72
2023/08/06 00:24:22;;;;;;;0.30;0.30;;;;;;;;;;6192565;28;20026;-73
2023/08/06 00:27:22;;;;;;;0.20;0.20;;;;;;;;;;6189017;28;20027;-72
2023/08/06 00:30:23;;;;;;;0.20;0.20;;;;;;;;;;6192101;28;20030;-73
2023/08/06 00:33:23;;;;;;;0.20;0.20;;;;;;;;;;6192552;28;20089;-73
2023/08/06 00:36:23;;;;;;;0.20;0.20;;;;;;;;;;6193360;28;20042;-73
2023/08/06 00:39:24;;;;;;;0.20;0.20;;;;;;;;;;6191975;28;20110;-73
2023/08/06 00:42:24;;;;;;;0.20;0.20;;;;;;;;;;6192276;28;20482;-73
2023/08/06 00:45:24;;;;;;;0.20;0.20;;;;;;;;;;6197631;28;20438;-73
2023/08/06 00:48:25;;;;;;;0.15;0.15;;;;;;;;;;6191138;28;20054;-73
2023/08/06 00:51:25;;;;;;;0.20;0.20;;;;;;;;;;6192068;28;20065;-73
2023/08/06 00:54:26;;;;;;;0.20;0.20;;;;;;;;;;6192341;28;20039;-73
2023/08/06 00:57:26;;;;;;;0.20;0.20;;;;;;;;;;6191843;28;20054;-72
2023/08/06 01:00:26;;;;;;;0.10;0.10;;;;;;;;;;6191784;28;20018;-73
2023/08/06 01:03:27;;;;;;;0.10;0.10;;;;;;;;;;6191432;28;20014;-72
2023/08/06 01:06:33;;;;;;;0.10;0.10;;;;;;;;;;6192239;28;20447;-73
2023/08/06 01:09:52;;;;;;;0.20;0.20;;;;;;;;;;6189548;28;20117;-72
2023/08/06 01:13:25;;;;;;;0.20;0.20;;;;;;;;;;6191769;28;20458;-72
2023/08/06 01:16:25;;;;;;;0.10;0.10;;;;;;;;;;6158128;28;20046;-73
2023/08/06 01:19:26;;;;;;;0.20;0.20;;;;;;;;;;6192438;28;20025;-74
2023/08/06 01:22:26;;;;;;;0.17;0.17;;;;;;;;;;6192330;28;20023;-73
2023/08/06 01:25:30;;;;;;;0.20;0.20;;;;;;;;;;6193322;28;20034;-74
2023/08/06 01:28:49;;;;;;;0.13;0.10;;;;;;;;;;6193418;28;20042;-73
2023/08/06 01:31:51;;;;;;;0.10;0.10;;;;;;;;;;6192125;28;20104;-72
2023/08/06 01:34:51;;;;;;;0.20;0.20;;;;;;;;;;6193121;28;20114;-73
2023/08/06 01:37:52;;;;;;;0.20;0.20;;;;;;;;;;6217140;28;20465;-73
2023/08/06 01:40:52;;;;;;;0.20;0.20;;;;;;;;;;6195838;28;20038;-72
2023/08/06 01:43:52;;;;;;;0.20;0.20;;;;;;;;;;6191451;28;20081;-72
2023/08/06 01:46:52;;;;;;;0.30;0.30;;;;;;;;;;5843571;28;10000495;-72
2023/08/06 01:49:53;;;;;;;0.20;0.20;;;;;;;;;;6193157;28;20550;-73
2023/08/06 01:52:53;;;;;;;0.30;0.30;;;;;;;;;;6196494;28;20050;-73
2023/08/06 01:55:53;;;;;;;0.30;0.30;;;;;;;;;;6194866;28;20061;-72
2023/08/06 01:58:53;;;;;;;0.20;0.20;;;;;;;;;;6194532;28;20514;-72
2023/08/06 02:01:53;;;;;;;0.20;0.20;;;;;;;;;;6195749;28;20301;-72
2023/08/06 02:04:54;;;;;;;0.50;0.50;;;;;;;;;;6194028;28;20042;-72
2023/08/06 02:07:54;;;;;;;0.43;0.40;;;;;;;;;;6191302;28;20026;-72
2023/08/06 02:10:55;;;;;;;0.40;0.40;;;;;;;;;;6190014;28;20125;-70
2023/08/06 02:13:55;;;;;;;0.70;0.47;;;;;;;;;;6193729;28;20125;-71
2023/08/06 02:16:55;;;;;;;0.40;0.40;;;;;;;;;;6193734;28;20026;-70
2023/08/06 02:19:55;;;;;;;0.50;0.50;;;;;;;;;;6196357;28;20026;-69
2023/08/06 02:22:56;;;;;;;0.40;0.40;;;;;;;;;;6203635;28;20066;-70
2023/08/06 02:25:57;;;;;;;0.40;0.40;;;;;;;;;;6214799;28;20057;-70
2023/08/06 02:28:57;;;;;;;0.40;0.40;;;;;;;;;;6223524;28;20042;-71
2023/08/06 02:31:57;;;;;;;0.40;0.40;;;;;;;;;;6200303;28;20478;-71
2023/08/06 02:34:57;;;;;;;0.50;0.50;;;;;;;;;;6199736;28;20052;-70
2023/08/06 02:37:57;;;;;;;0.50;0.50;;;;;;;;;;6199611;28;20023;-70
2023/08/06 02:40:58;;;;;;;0.60;0.50;;;;;;;;;;6199165;28;20878;-70
2023/08/06 02:43:58;;;;;;;0.60;0.50;;;;;;;;;;6198073;28;20018;-70
2023/08/06 02:46:58;;;;;;;0.50;0.43;;;;;;;;;;6197512;28;20038;-71
2023/08/06 02:49:58;;;;;;;0.50;0.50;;;;;;;;;;6197599;28;20018;-71
2023/08/06 02:52:59;;;;;;;0.70;0.60;;;;;;;;;;6199636;28;20054;-71
2023/08/06 02:55:59;;;;;;;0.50;0.50;;;;;;;;;;6195464;28;20041;-71
2023/08/06 02:58:59;;;;;;;0.50;0.50;;;;;;;;;;6198800;28;20109;-72
2023/08/06 03:02:00;;;;;;;0.43;0.43;;;;;;;;;;6198781;28;20366;-72
2023/08/06 03:05:00;;;;;;;0.50;0.50;;;;;;;;;;6198526;28;20030;-72
2023/08/06 03:08:00;;;;;;;0.63;0.60;;;;;;;;;;6199391;28;20100;-71
2023/08/06 03:11:00;;;;;;;0.70;0.70;;;;;;;;;;6196732;28;20149;-71
2023/08/06 03:14:01;;;;;;;0.40;0.40;;;;;;;;;;6199018;28;20699;-71
2023/08/06 03:17:01;;;;;;;1.93;0.73;;;;;;;;;;6197784;28;20335;-71
2023/08/06 03:20:01;;;;;;;0.70;0.70;;;;;;;;;;6196993;28;20034;-70
2023/08/06 03:23:01;;;;;;;0.50;0.50;;;;;;;;;;6192391;28;20387;-70
2023/08/06 03:26:02;;;;;;;0.73;0.70;;;;;;;;;;6197419;28;20026;-69
2023/08/06 03:29:02;;;;;;;2.05;0.80;;;;;;;;;;6198452;28;20030;-69
2023/08/06 03:32:03;;;;;;;0.80;0.70;;;;;;;;;;6197003;28;20037;-69
2023/08/06 03:35:03;;;;;;;0.70;0.70;;;;;;;;;;6201409;28;20040;-69
2023/08/06 03:38:03;;;;;;;0.80;0.80;;;;;;;;;;6197135;28;20105;-68
2023/08/06 03:41:04;;;;;;;0.70;0.70;;;;;;;;;;6193978;28;20026;-68
2023/08/06 03:44:05;;;;;;;0.77;0.77;;;;;;;;;;6198244;28;20026;-68
2023/08/06 03:47:05;;;;;;;0.95;0.85;;;;;;;;;;6198374;28;20133;-67
2023/08/06 03:50:05;;;;;;;0.80;0.80;;;;;;;;;;6195508;28;20030;-66
2023/08/06 03:53:05;;;;;;;1.10;1.00;;;;;;;;;;6197621;28;20105;-65
2023/08/06 03:56:06;;;;;;;1.57;0.90;;;;;;;;;;6196376;28;20477;-65
2023/08/06 03:59:06;;;;;;;1.57;1.20;;;;;;;;;;6189054;28;20122;-65
2023/08/06 04:02:06;;;;;;;1.10;1.10;;;;;;;;;;6183033;28;20022;-65
2023/08/06 04:05:07;;;;;;;1.07;1.00;;;;;;;;;;6191481;28;20026;-67
2023/08/06 04:08:07;;;;;;;1.10;1.00;;;;;;;;;;6185769;28;20450;-65
2023/08/06 04:11:08;;;;;;;1.20;1.10;;;;;;;;;;6182953;28;20273;-65
2023/08/06 04:14:08;;;;;;;0.95;0.95;;;;;;;;;;6178243;28;20110;-65
2023/08/06 04:17:08;;;;;;;1.33;1.20;;;;;;;;;;6184190;28;20037;-65
2023/08/06 04:20:08;;;;;;;1.20;1.10;;;;;;;;;;6183954;28;20045;-65
2023/08/06 04:23:09;;;;;;;1.30;1.20;;;;;;;;;;6186401;28;20114;-65
2023/08/06 04:26:09;;;;;;;1.53;1.10;;;;;;;;;;6181942;28;20109;-65
2023/08/06 04:29:09;;;;;;;1.40;1.27;;;;;;;;;;6180219;28;20456;-64
2023/08/06 04:32:10;;;;;;;1.40;1.30;;;;;;;;;;6181768;28;20355;-64
2023/08/06 04:35:10;;;;;;;1.60;1.50;;;;;;;;;;6186541;28;20053;-64
2023/08/06 04:38:10;;;;;;;1.53;1.43;;;;;;;;;;6174141;28;20038;-64
2023/08/06 04:41:11;;;;;;;1.70;1.60;;;;;;;;;;6181596;28;20022;-65
2023/08/06 04:44:11;;;;;;;1.60;1.50;;;;;;;;;;6180983;28;20061;-64
2023/08/06 04:47:11;;;;;;;1.23;1.17;;;;;;;;;;6180340;28;20043;-65
2023/08/06 04:50:12;;;;;;;1.97;1.77;;;;;;;;;;6184833;28;20033;-65
2023/08/06 04:53:12;;;;;;;1.60;1.47;;;;;;;;;;6184742;28;20054;-65
2023/08/06 04:56:12;;;;;;;1.70;1.60;;;;;;;;;;6158912;28;20089;-65
2023/08/06 04:59:12;;;;;;;1.40;1.30;;;;;;;;;;6184590;28;20345;-65
2023/08/06 05:02:13;;;;;;;1.30;1.20;;;;;;;;;;6185786;28;20104;-65
2023/08/06 05:05:13;;;;;;;1.40;1.30;;;;;;;;;;6198724;28;20086;-64
2023/08/06 05:08:14;;;;;;;1.60;1.50;;;;;;;;;;6200439;28;20022;-64
2023/08/06 05:11:14;;;;;;;1.63;1.52;;;;;;;;;;6187308;28;20739;-65
2023/08/06 05:14:15;;;;;;;1.77;1.60;;;;;;;;;;6185223;28;20038;-66
2023/08/06 05:17:15;;;;;;;1.50;1.40;;;;;;;;;;6186463;28;20025;-64
2023/08/06 05:20:15;;;;;;;1.93;1.40;;;;;;;;;;6181771;28;20981;-65
2023/08/06 05:23:16;;;;;;;1.75;1.50;;;;;;;;;;6182881;28;20026;-65
2023/08/06 05:26:19;;;;;;;1.60;1.50;;;;;;;;;;6177423;28;20084;-66
2023/08/06 05:29:19;;;;;;;2.08;1.30;;;;;;;;;;6182557;28;20033;-66
2023/08/06 05:32:19;;;;;;;1.53;1.30;;;;;;;;;;6185715;28;20034;-65
2023/08/06 05:35:20;;;;;;;2.70;1.90;;;;;;;;;;6183521;28;20022;-66
2023/08/06 05:38:20;;;;;;;2.63;2.42;;;;;;;;;;6188694;28;20024;-66
2023/08/06 05:41:20;;;;;;;2.17;1.97;;;;;;;;;;6180820;28;20026;-66
2023/08/06 05:44:21;;;;;;;2.23;2.03;;;;;;;;;;6163194;28;20026;-66
2023/08/06 05:47:21;;;;;;;2.58;2.38;;;;;;;;;;6181278;28;20037;-67
2023/08/06 05:50:21;;;;;;;2.27;1.87;;;;;;;;;;6181089;28;20050;-68
2023/08/06 05:53:21;;;;;;;1.80;1.70;;;;;;;;;;6182061;28;20042;-67
2023/08/06 05:56:21;;;;;;;1.90;1.47;;;;;;;;;;6183871;28;20031;-68
2023/08/06 05:59:22;;;;;;;1.70;1.60;;;;;;;;;;6186132;28;20010;-67
2023/08/06 06:02:22;;;;;;;1.60;1.50;;;;;;;;;;6188519;28;20516;-68
2023/08/06 06:05:22;;;;;;;1.90;1.67;;;;;;;;;;6186855;28;20037;-68
2023/08/06 06:08:22;;;;;;;1.80;1.70;;;;;;;;;;6189961;28;20037;-68
2023/08/06 06:11:23;;;;;;;1.90;1.80;;;;;;;;;;6187806;28;20030;-67
2023/08/06 06:14:23;;;;;;;2.00;1.90;;;;;;;;;;6189366;28;20050;-68
2023/08/06 06:17:23;;;;;;;1.70;1.60;;;;;;;;;;6185164;28;20038;-68
2023/08/06 06:20:23;;;;;;;1.37;1.27;;;;;;;;;;6183758;28;20026;-68
2023/08/06 06:23:23;;;;;;;1.60;1.50;;;;;;;;;;6186661;28;20034;-68
2023/08/06 06:26:24;;;;;;;1.57;1.30;;;;;;;;;;6187978;28;20109;-67
2023/08/06 06:29:24;;;;;;;1.80;1.50;;;;;;;;;;6187654;28;20034;-67
2023/08/06 06:32:25;;;;;;;1.70;1.50;;;;;;;;;;6184154;28;20026;-68
2023/08/06 06:35:25;;;;;;;2.40;2.20;;;;;;;;;;6186138;28;20030;-69
2023/08/06 06:38:25;;;;;;;2.40;2.20;;;;;;;;;;6182970;28;20042;-66
2023/08/06 06:41:26;;;;;;;2.00;1.90;;;;;;;;;;6190936;28;20030;-66
2023/08/06 06:44:26;;;;;;;1.95;1.85;;;;;;;;;;6183021;28;20029;-68
2023/08/06 06:47:26;;;;;;;1.60;1.50;;;;;;;;;;6183911;28;20467;-68
2023/08/06 06:50:27;;;;;;;2.13;1.93;;;;;;;;;;6171090;28;20149;-67
2023/08/06 06:53:27;;;;;;;2.05;1.85;;;;;;;;;;6185069;28;20130;-67
2023/08/06 06:56:27;;;;;;;2.10;1.90;;;;;;;;;;6182287;28;20034;-66
2023/08/06 06:59:27;;;;;;;1.40;1.30;;;;;;;;;;6184914;28;20296;-67
2023/08/06 07:02:28;;;;;;;2.10;2.00;;;;;;;;;;6183064;28;20046;-67
2023/08/06 07:05:28;;;;;;;1.73;1.63;;;;;;;;;;6185794;28;20026;-70
2023/08/06 07:08:28;;;;;;;1.70;1.60;;;;;;;;;;6183616;28;20030;-67
2023/08/06 07:11:28;;;;;;;1.50;1.40;;;;;;;;;;6191928;28;20018;-67
2023/08/06 07:14:28;;;;;;;1.27;1.23;;;;;;;;;;6183760;28;20038;-65
2023/08/06 07:17:29;;;;;;;1.53;1.43;;;;;;;;;;6185918;28;20042;-67
2023/08/06 07:20:31;;;;;;;1.50;1.40;;;;;;;;;;6185096;28;20073;-67
2023/08/06 07:23:31;;;;;;;1.48;1.38;;;;;;;;;;6185345;28;20026;-66
2023/08/06 07:26:31;;;;;;;1.40;1.30;;;;;;;;;;6180649;28;20041;-66
2023/08/06 07:29:32;;;;;;;;;;;;;;;;;;6187680;28;21532;-68
2023/08/06 07:32:32;;;;;;;1.75;1.65;;;;;;;;;;6184356;28;20337;-67
2023/08/06 07:35:32;;;;;;;;;;;;;;;;;;6184299;28;20041;-68
2023/08/06 07:38:32;;;;;;;1.63;1.52;;;;;;;;;;6187823;28;19916;-67
2023/08/06 07:41:32;;;;;;;2.00;1.83;;;;;;;;;;6183625;28;20141;-68
2023/08/06 07:44:32;;;;;;;;;;;;;;;;;;6189844;28;20028;-69
2023/08/06 07:47:33;;;;;;;1.77;1.67;;;;;;;;;;6185026;28;19989;-67
2023/08/06 07:50:33;;;;;;;2.90;2.67;;;;;;;;;;6195178;28;20084;-67
2023/08/06 07:53:33;;;;;;;2.67;2.43;;;;;;;;;;6193829;28;20062;-67
2023/08/06 07:56:33;;;;;;;1.93;1.70;;;;;;;;;;6189280;28;20312;-67
2023/08/06 07:59:34;;;;;;;3.60;1.70;;;;;;;;;;6190488;28;20022;-67
2023/08/06 08:02:34;;;;;;;1.50;1.40;;;;;;;;;;6190085;28;20356;-67
2023/08/06 08:05:34;;;;;;;;;;;;;;;;;;6195199;28;20157;-67
2023/08/06 08:08:38;;;;;;;1.33;1.23;;;;;;;;;;6197679;28;19953;-67
2023/08/06 08:11:38;;;;;;;1.40;1.30;;;;;;;;;;6196642;28;20026;-66
2023/08/06 08:14:38;;;;;;;1.70;1.60;;;;;;;;;;6193689;28;20071;-67
2023/08/06 08:17:38;;;;;;;;;;;;;;;;;;6187427;28;20125;-68
2023/08/06 08:20:39;;;;;;;2.00;1.77;;;;;;;;;;6194279;28;19909;-68
2023/08/06 08:23:39;;;;;;;;;;;;;;;;;;6188280;28;20428;-68
2023/08/06 08:26:39;;;;;;;1.50;1.40;;;;;;;;;;6196059;28;20838;-69
2023/08/06 08:29:39;;;;;;;;;;;;;;;;;;6195553;28;20026;-70
2023/08/06 08:32:40;;;;;;;1.65;1.20;;;;;;;;;;6194479;28;19928;-69
2023/08/06 08:35:40;;;;;;;1.57;1.47;;;;;;;;;;6195509;28;20026;-69
2023/08/06 08:38:41;;;;;;;;;;;;;;;;;;6196582;28;20416;-69
2023/08/06 08:41:42;;;;;;;3.90;3.17;;;;;;;;;;6197292;28;20278;-69
2023/08/06 08:44:42;;;;;;;;;;;;;;;;;;6196309;28;20027;-71
2023/08/06 08:47:42;;;;;;;2.42;2.22;;;;;;;;;;6188794;28;19917;-69
2023/08/06 08:50:43;;;;;;;;;;;;;;;;;;6163620;28;20379;-69
2023/08/06 08:53:44;;;;;;;1.75;1.65;;;;;;;;;;6191360;28;19940;-68
2023/08/06 08:56:44;;;;;;;1.92;1.77;;;;;;;;;;6196060;28;20046;-68
2023/08/06 08:59:44;;;;;;;1.63;1.53;;;;;;;;;;6198355;28;20451;-67
2023/08/06 09:02:45;;;;;;;3.03;1.80;;;;;;;;;;6194975;28;20032;-70
2023/08/06 09:05:48;;;;;;;3.95;2.60;;;;;;;;;;6192229;28;20868;-69
2023/08/06 09:08:54;;;;;;;3.25;2.80;;;;;;;;;;6194778;28;20033;-69
2023/08/06 09:11:55;;;;;;;2.53;2.33;;;;;;;;;;6196591;28;20432;-69
2023/08/06 09:14:55;;;;;;;1.73;1.63;;;;;;;;;;6204672;28;20022;-71
2023/08/06 09:17:55;;;;;;;2.30;2.10;;;;;;;;;;6204460;28;20045;-71
2023/08/06 09:20:56;;;;;;;1.90;1.77;;;;;;;;;;6193124;28;20049;-69
2023/08/06 09:23:58;;;;;;;2.35;2.15;;;;;;;;;;6194522;28;20479;-69
2023/08/06 09:27:03;;;;;;;2.38;2.17;;;;;;;;;;6185038;28;20027;-68
2023/08/06 09:30:04;;;;;;;2.38;2.17;;;;;;;;;;6196206;28;20018;-68
2023/08/06 09:33:10;;;;;;;2.03;1.92;;;;;;;;;;6195825;28;20137;-68
2023/08/06 09:36:10;;;;;;;2.13;2.00;;;;;;;;;;6199332;28;20109;-68
2023/08/06 09:39:18;;;;;;;2.75;2.13;;;;;;;;;;6201282;28;20410;-68
2023/08/06 09:42:18;;;;;;;2.75;2.55;;;;;;;;;;6200015;28;20117;-70
2023/08/06 09:45:18;;;;;;;5.40;2.30;;;;;;;;;;6200797;28;20026;-69
2023/08/06 09:48:19;;;;;;;3.20;2.93;;;;;;;;;;6200682;28;20033;-73
2023/08/06 09:51:19;;;;;;;4.10;3.80;;;;;;;;;;6176317;28;20030;-74
2023/08/06 09:54:19;;;;;;;3.00;2.80;;;;;;;;;;6191539;28;20034;-72
2023/08/06 09:57:20;;;;;;;2.73;2.53;;;;;;;;;;6189022;28;21083;-73
2023/08/06 10:00:20;;;;;;;2.83;2.63;;;;;;;;;;6189536;28;20056;-72
2023/08/06 10:03:20;;;;;;;5.03;4.53;;;;;;;;;;6188494;28;20450;-74
2023/08/06 10:06:22;;;;;;;4.80;4.37;;;;;;;;;;6187378;28;20030;-75
2023/08/06 10:09:23;;;;;;;4.05;3.63;;;;;;;;;;6186595;28;20277;-71
2023/08/06 10:12:24;;;;;;;3.20;2.90;;;;;;;;;;6192037;28;20034;-72
2023/08/06 10:15:26;;;;;;;3.25;3.05;;;;;;;;;;6193614;28;20061;-73
2023/08/06 10:18:27;;;;;;;3.50;3.20;;;;;;;;;;6190744;28;20026;-71
2023/08/06 10:21:27;;;;;;;3.20;2.80;;;;;;;;;;6192285;28;20040;-72
2023/08/06 10:24:44;;;;;;;3.03;2.72;;;;;;;;;;6217630;28;20034;-72
2023/08/06 10:27:48;;;;;;;2.88;2.58;;;;;;;;;;6192917;28;20109;-71
2023/08/06 10:30:48;;;;;;;3.40;2.78;;;;;;;;;;6197886;28;20170;-69
2023/08/06 10:33:48;;;;;;;3.13;2.93;;;;;;;;;;6189206;28;20034;-68
2023/08/06 10:36:48;;;;;;;3.37;3.17;;;;;;;;;;6197306;28;20261;-67
2023/08/06 10:39:50;;;;;;;3.00;2.70;;;;;;;;;;6197562;28;20058;-65
2023/08/06 10:42:51;;;;;;;2.65;2.45;;;;;;;;;;6197074;28;20088;-65
2023/08/06 10:45:51;;;;;;;2.87;2.67;;;;;;;;;;6196176;28;20026;-65
2023/08/06 10:48:52;;;;;;;2.80;2.60;;;;;;;;;;6200947;28;20037;-65
2023/08/06 10:51:53;;;;;;;3.08;2.70;;;;;;;;;;6198378;28;20129;-66
2023/08/06 10:54:54;;;;;;;2.55;2.35;;;;;;;;;;6197266;28;20038;-65
2023/08/06 10:57:55;;;;;;;2.42;2.22;;;;;;;;;;6199253;28;20026;-66
2023/08/06 11:00:56;;;;;;;2.75;2.55;;;;;;;;;;6194929;28;20108;-66
2023/08/06 11:03:56;;;;;;;2.38;1.80;;;;;;;;;;6191832;28;20035;-66
2023/08/06 11:06:56;;;;;;;2.20;2.00;;;;;;;;;;6177949;28;20401;-66
2023/08/06 11:09:57;;;;;;;;;;;;;;;;;;6195673;28;20161;-66
2023/08/06 11:13:00;;;;;;;2.17;1.98;;;;;;;;;;6195333;28;19913;-67
2023/08/06 11:16:00;;;;;;;1.77;1.67;;;;;;;;;;6191635;28;20038;-67
2023/08/06 11:19:01;;;;;;;2.00;1.80;;;;;;;;;;6192714;28;20141;-67
2023/08/06 11:22:02;;;;;;;1.90;1.70;;;;;;;;;;6196945;28;20113;-67
2023/08/06 11:25:02;;;;;;;1.75;1.65;;;;;;;;;;6188121;28;20037;-69
2023/08/06 11:28:02;;;;;;;1.80;1.70;;;;;;;;;;5843560;28;10000139;-67
2023/08/06 11:31:03;;;;;;;2.45;1.98;;;;;;;;;;6191617;28;20286;-68
2023/08/06 11:34:03;;;;;;;;;;;;;;;;;;6189620;28;20091;-68
2023/08/06 11:37:07;;;;;;;1.60;1.50;;;;;;;;;;6190232;28;20293;-67
2023/08/06 11:40:11;;;;;;;2.28;1.90;;;;;;;;;;6186014;28;20023;-65
2023/08/06 11:43:14;;;;;;;1.70;1.60;;;;;;;;;;6185194;28;20026;-67
2023/08/06 11:46:14;;;;;;;2.00;1.80;;;;;;;;;;6186644;28;20419;-68
2023/08/06 11:49:14;;;;;;;4.07;2.00;;;;;;;;;;6192473;28;20026;-69
2023/08/06 11:52:22;;;;;;;2.20;2.00;;;;;;;;;;6189836;28;20142;-69
2023/08/06 11:55:23;;;;;;;1.83;1.73;;;;;;;;;;6187395;28;20042;-74
2023/08/06 11:58:24;;;;;;;2.13;1.92;;;;;;;;;;6189649;28;20489;-74
2023/08/06 12:01:25;;;;;;;2.63;1.87;;;;;;;;;;6181324;28;20038;-75
2023/08/06 12:04:25;;;;;;;2.83;2.25;;;;;;;;;;6181653;28;20034;-74
2023/08/06 12:07:26;;;;;;;2.70;2.13;;;;;;;;;;6161997;28;20121;-72
2023/08/06 12:10:27;;;;;;;2.40;2.20;;;;;;;;;;6179349;28;20026;-71
2023/08/06 12:13:28;;;;;;;;;;;;;;;;;;6180411;28;20097;-70
2023/08/06 12:16:28;;;;;;;2.03;1.93;;;;;;;;;;6179339;28;19965;-70
2023/08/06 12:19:30;;;;;;;2.20;2.00;;;;;;;;;;6178474;28;20085;-71
2023/08/06 12:22:35;;;;;;;2.28;2.08;;;;;;;;;;6189043;28;20030;-71
2023/08/06 12:25:37;;;;;;;2.28;2.08;;;;;;;;;;6179447;28;20623;-71
2023/08/06 12:28:37;;;;;;;3.15;2.40;;;;;;;;;;6180163;28;20036;-71
2023/08/06 12:31:37;;;;;;;2.53;2.33;;;;;;;;;;6176699;28;20378;-71
2023/08/06 12:34:39;;;;;;;3.23;2.30;;;;;;;;;;6177793;28;20036;-72
2023/08/06 12:37:39;;;;;;;;;;;;;;;;;;6181060;28;20034;-72
2023/08/06 12:40:39;;;;;;;2.20;2.00;;;;;;;;;;6174364;28;20527;-73
2023/08/06 12:43:39;;;;;;;2.73;2.20;;;;;;;;;;6174248;28;20753;-73
2023/08/06 12:46:40;;;;;;;2.73;2.20;;;;;;;;;;6176358;28;20058;-73
2023/08/06 12:49:40;;;;;;;2.53;2.33;;;;;;;;;;6178627;28;20018;-73
2023/08/06 12:52:40;;;;;;;2.58;2.38;;;;;;;;;;6133859;28;1316554;-73
2023/08/06 12:55:41;;;;;;;3.10;2.37;;;;;;;;;;6184026;28;20038;-71
2023/08/06 12:58:42;;;;;;;3.55;2.95;;;;;;;;;;6178566;28;20108;-70
2023/08/06 13:01:42;;;;;;;3.08;2.63;;;;;;;;;;6179797;28;20066;-70
2023/08/06 13:04:43;;;;;;;4.15;3.00;;;;;;;;;;6184987;28;20026;-69
2023/08/06 13:07:43;;;;;;;3.53;2.90;;;;;;;;;;6184403;28;20045;-69
2023/08/06 13:10:43;;;;;;;3.43;2.80;;;;;;;;;;6177633;28;20473;-68
2023/08/06 13:13:43;;;;;;;;;;;;;;;;;;6175994;28;20132;-69
2023/08/06 13:16:44;;;;;;;2.17;2.08;;;;;;;;;;6175930;28;19921;-68
2023/08/06 13:19:45;;;;;;;2.97;2.67;;;;;;;;;;6176809;28;20030;-68
2023/08/06 13:22:46;;;;;;;2.85;2.53;;;;;;;;;;6180616;28;20130;-67
2023/08/06 13:25:46;;;;;;;2.38;2.17;;;;;;;;;;6178266;28;20410;-67
2023/08/06 13:28:47;;;;;;;2.33;2.17;;;;;;;;;;6179892;28;20065;-67
2023/08/06 13:31:48;;;;;;;2.03;1.92;;;;;;;;;;6177271;28;20592;-66
2023/08/06 13:34:48;;;;;;;2.33;2.20;;;;;;;;;;6178564;28;20038;-66
2023/08/06 13:37:48;;;;;;;;;;;;;;;;;;6186606;28;20084;-65
2023/08/06 13:40:48;;;;;;;2.13;1.92;;;;;;;;;;6176638;28;20187;-67
2023/08/06 13:43:48;;;;;;;;;;;;;;;;;;6181397;28;21571;-66
2023/08/06 13:46:48;;;;;;;1.90;1.70;;;;;;;;;;6182555;28;20252;-66
2023/08/06 13:49:49;;;;;;;;;;;;;;;;;;6177353;28;20062;-67
2023/08/06 13:52:49;;;;;;;1.35;1.25;;;;;;;;;;6176464;28;19949;-66
2023/08/06 13:55:49;;;;;;;1.83;1.70;;;;;;;;;;6178411;28;20045;-67
2023/08/06 13:58:49;;;;;;;2.58;1.55;;;;;;;;;;6177690;28;20025;-67
2023/08/06 14:01:49;;;;;;;;;;;;;;;;;;6181727;28;20026;-67
2023/08/06 14:04:50;;;;;;;1.08;1.00;;;;;;;;;;6179996;28;19918;-66
2023/08/06 14:07:50;;;;;;;1.40;1.00;;;;;;;;;;6184717;28;20479;-66
2023/08/06 14:10:50;;;;;;;;;;;;;;;;;;6178946;28;20277;-66
2023/08/06 14:13:50;;;;;;;0.70;0.70;;;;;;;;;;6178548;28;19972;-66
2023/08/06 14:16:50;;;;;;;;;;;;;;;;;;6185109;28;20063;-66
2023/08/06 14:19:51;;;;;;;0.80;0.80;;;;;;;;;;6181443;28;19958;-67
2023/08/06 14:22:51;;;;;;;1.27;0.60;;;;;;;;;;6188317;28;20038;-66
2023/08/06 14:25:51;;;;;;;;;;;;;;;;;;6194570;28;20261;-67
2023/08/06 14:28:54;;;;;;;1.13;1.00;;;;;;;;;;6194142;28;20016;-67
2023/08/06 14:31:54;;;;;;;1.52;1.30;;;;;;;;;;6192274;28;20018;-66
2023/08/06 14:34:54;;;;;;;1.23;0.93;;;;;;;;;;6180800;28;20033;-66
2023/08/06 14:37:55;;;;;;;0.70;0.70;;;;;;;;;;6178677;28;20041;-65
2023/08/06 14:40:55;;;;;;;2.83;0.50;;;;;;;;;;6184488;28;20030;-67
2023/08/06 14:43:55;;;;;;;;;;;;;;;;;;6178498;28;20293;-68
2023/08/06 14:46:55;;;;;;;1.58;0.45;;;;;;;;;;6184553;28;19924;-68
2023/08/06 14:49:56;;;;;;;0.50;0.50;;;;;;;;;;6186676;28;20181;-66
2023/08/06 14:52:56;;;;;;;0.70;0.50;;;;;;;;;;6187089;28;20351;-66
2023/08/06 14:55:56;;;;;;;3.53;0.50;;;;;;;;;;6189219;28;20030;-67
2023/08/06 14:58:56;;;;;;;0.80;0.43;;;;;;;;;;6189834;28;20332;-66
2023/08/06 15:01:56;;;;;;;0.47;0.47;;;;;;;;;;6197268;28;20038;-66
2023/08/06 15:04:57;;;;;;;0.43;0.33;;;;;;;;;;6186401;28;20273;-67
2023/08/06 15:07:57;;;;;;;0.50;0.30;;;;;;;;;;6184586;28;20034;-68
2023/08/06 15:10:58;;;;;;;0.57;0.43;;;;;;;;;;6192790;28;20545;-66
2023/08/06 15:14:00;;;;;;;1.17;0.70;;;;;;;;;;6201206;28;20085;-67
2023/08/06 15:17:00;;;;;;;0.75;0.75;;;;;;;;;;6187198;28;20022;-66
2023/08/06 15:20:01;;;;;;;1.20;1.10;;;;;;;;;;6172544;28;20033;-68
2023/08/06 15:23:01;;;;;;;0.60;0.60;;;;;;;;;;6184787;28;20763;-68
2023/08/06 15:26:01;;;;;;;;;;;;;;;;;;6185698;28;20034;-69
2023/08/06 15:29:01;;;;;;;0.50;0.43;;;;;;;;;;6200889;28;19905;-70
2023/08/06 15:32:01;;;;;;;;;;;;;;;;;;6192987;28;20410;-70
2023/08/06 15:35:04;;;;;;;1.50;1.27;;;;;;;;;;6186455;28;20345;-70
2023/08/06 15:38:04;;;;;;;0.75;0.43;;;;;;;;;;6190461;28;20026;-68
2023/08/06 15:41:04;;;;;;;0.43;0.30;;;;;;;;;;6193146;28;20475;-68
2023/08/06 15:44:04;;;;;;;0.20;0.20;;;;;;;;;;6189685;28;20026;-68
2023/08/06 15:47:05;;;;;;;1.10;0.47;;;;;;;;;;6190401;28;20033;-67
2023/08/06 15:50:06;;;;;;;1.27;0.98;;;;;;;;;;6177207;28;20049;-68
2023/08/06 15:53:07;;;;;;;2.25;0.90;;;;;;;;;;6180399;28;20355;-67
2023/08/06 15:56:08;;;;;;;0.52;0.30;;;;;;;;;;6182530;28;20045;-67
2023/08/06 15:59:27;;;;;;;0.40;0.30;;;;;;;;;;6181001;28;20026;-67
2023/08/06 16:02:27;;;;;;;1.48;0.20;;;;;;;;;;6178449;28;20026;-68
2023/08/06 16:05:27;;;;;;;0.20;0.15;;;;;;;;;;6178655;28;20081;-69
2023/08/06 16:08:28;;;;;;;0.57;0.30;;;;;;;;;;6196045;28;20057;-69
2023/08/06 16:11:29;;;;;;;0.57;0.40;;;;;;;;;;6193317;28;20026;-69
2023/08/06 16:14:29;;;;;;;1.27;0.40;;;;;;;;;;6171231;28;20042;-70
2023/08/06 16:17:29;;;;;;;;;;;;;;;;;;6193794;28;20269;-72
2023/08/06 16:20:29;;;;;;;0.93;0.82;;;;;;;;;;6193297;28;20012;-72
2023/08/06 16:23:29;;;;;;;;;;;;;;;;;;6193167;28;20121;-73
2023/08/06 16:26:30;;;;;;;0.32;0.32;;;;;;;;;;6193554;28;19938;-73
2023/08/06 16:29:30;;;;;;;;;;;;;;;;;;6194996;28;20113;-74
2023/08/06 16:32:31;;;;;;;0.30;0.30;;;;;;;;;;6193039;28;19930;-74
2023/08/06 16:35:31;;;;;;;;;;;;;;;;;;6191841;28;20042;-74
2023/08/06 16:38:31;;;;;;;0.47;0.22;;;;;;;;;;6193004;28;19957;-72
2023/08/06 16:41:31;;;;;;;;;;;;;;;;;;6204084;28;20085;-72
2023/08/06 16:44:32;;;;;;;1.02;0.20;;;;;;;;;;6213308;28;19910;-72
2023/08/06 16:47:32;;;;;;;;;;;;;;;;;;6197288;28;20093;-71
2023/08/06 16:50:32;;;;;;;0.27;0.20;;;;;;;;;;6187345;28;19939;-72
2023/08/06 16:53:32;;;;;;;0.47;0.40;;;;;;;;;;6197272;28;20518;-72
2023/08/06 16:56:32;;;;;;;;;;;;;;;;;;6200653;28;20101;-72
2023/08/06 16:59:33;;;;;;;0.50;0.25;;;;;;;;;;6187903;28;19914;-71
2023/08/06 17:02:33;;;;;;;;;;;;;;;;;;6191179;28;20109;-71
2023/08/06 17:05:33;;;;;;;0.30;0.20;;;;;;;;;;6190071;28;19964;-71
2023/08/06 17:08:36;;;;;;;0.30;0.30;;;;;;;;;;6194301;28;20491;-71
2023/08/06 17:11:36;;;;;;;0.73;0.30;;;;;;;;;;6193823;28;20038;-72
2023/08/06 17:14:36;;;;;;;0.10;0.10;;;;;;;;;;6185849;28;20072;-70
2023/08/06 17:17:37;;;;;;;0.50;0.33;;;;;;;;;;6183231;28;20078;-71
2023/08/06 17:20:40;;;;;;;1.27;1.17;;;;;;;;;;6193870;28;20498;-70
2023/08/06 17:23:40;;;;;;;1.27;0.98;;;;;;;;;;6174921;28;20038;-70
2023/08/06 17:26:41;;;;;;;0.40;0.40;;;;;;;;;;6189985;28;20109;-71
2023/08/06 17:29:41;;;;;;;1.03;0.27;;;;;;;;;;6188073;28;20475;-70
2023/08/06 17:32:41;;;;;;;0.20;0.20;;;;;;;;;;6179291;28;20919;-71
2023/08/06 17:35:41;;;;;;;;;;;;;;;;;;6180859;28;20038;-71
2023/08/06 17:38:42;;;;;;;2.38;1.00;;;;;;;;;;6176809;28;20028;-70
2023/08/06 17:41:42;;;;;;;1.47;0.90;;;;;;;;;;6180683;28;20037;-70
2023/08/06 17:44:43;;;;;;;0.73;0.40;;;;;;;;;;6190474;28;20041;-70
2023/08/06 17:47:43;;;;;;;0.30;0.27;;;;;;;;;;6189170;28;20110;-70
2023/08/06 17:50:44;;;;;;;0.20;0.20;;;;;;;;;;6172345;28;20022;-70
2023/08/06 17:53:44;;;;;;;1.48;0.20;;;;;;;;;;6180119;28;20423;-70
2023/08/06 17:56:45;;;;;;;0.30;0.10;;;;;;;;;;6186188;28;20029;-70
2023/08/06 17:59:45;;;;;;;0.97;0.50;;;;;;;;;;6194935;28;20042;-71
2023/08/06 18:02:45;;;;;;;1.33;1.07;;;;;;;;;;6192623;28;20034;-70
2023/08/06 18:05:45;;;;;;;0.77;0.77;;;;;;;;;;6187678;28;20018;-70
2023/08/06 18:08:45;;;;;;;0.30;0.27;;;;;;;;;;6190601;28;21779;-69
2023/08/06 18:11:46;;;;;;;0.20;0.20;;;;;;;;;;6195396;28;20027;-69
2023/08/06 18:14:46;;;;;;;0.10;0.10;;;;;;;;;;6196682;28;20066;-65